Time;durP1;ratioP1;P1;durP2;ratioP2;P2;SDS_P1;SDS_P2;PMS_P1;PMS_P2;Temp;Humidity;BMP_temperature;BMP_pressure;BME280_temperature;BME280_humidity;BME280_pressure;Samples;Min_cycle;Max_cycle;Signal;HPM_P1;HPM_P2
2022/08/21 00:00:13;;;;;;;;;;;;;;;19.75;54.91;100703.31;4958181;28;7191;-74
2022/08/21 00:02:55;;;;;;;;;;;;;;;19.73;55.41;100688.53;4958175;28;7381;-74
2022/08/21 00:05:22;;;;;;;;;;;;;;;19.71;55.39;100689.41;4959721;28;6796;-75
2022/08/21 00:07:48;;;;;;;;;;;;;;;19.68;55.35;100681.56;4965308;28;7125;-75
2022/08/21 00:10:15;;;;;;;;;;;;;;;19.66;55.07;100680.66;4959444;28;6851;-75
2022/08/21 00:12:42;;;;;;;;;;;;;;;19.65;55.43;100675.44;4961135;28;6867;-75
2022/08/21 00:15:14;;;;;;;;;;;;;;;19.62;55.06;100676.25;4955433;28;7238;-75
2022/08/21 00:17:40;;;;;;;;;;;;;;;19.61;54.85;100673.66;4958959;28;6963;-75
2022/08/21 00:20:10;;;;;;;;;;;;;;;19.59;54.96;100672.72;4989758;28;6772;-75
2022/08/21 00:22:36;;;;;;;;;;;;;;;19.56;55.12;100664.03;4973688;28;6864;-75
2022/08/21 00:25:05;;;;;;;;;;;;;;;19.54;55.03;100668.34;4958096;28;7900;-75
2022/08/21 00:27:31;;;;;;;;;;;;;;;19.52;55.05;100669.16;4960210;28;6974;-75
2022/08/21 00:29:57;;;;;;;;;;;;;;;19.48;55.21;100668.25;4964251;28;6768;-75
2022/08/21 00:32:26;;;;;;;;;;;;;;;19.43;54.86;100662.13;4963069;28;6960;-75
2022/08/21 00:34:53;;;;;;;;;;;;;;;19.37;54.99;100665.50;4959478;28;6792;-75
2022/08/21 00:37:19;;;;;;;;;;;;;;;19.33;54.81;100665.44;4982659;28;6956;-75
2022/08/21 00:39:45;;;;;;;;;;;;;;;19.27;54.45;100667.06;4962690;28;6957;-75
2022/08/21 00:42:17;;;;;;;;;;;;;;;19.22;54.60;100666.13;4965665;28;7003;-75
2022/08/21 00:44:49;;;;;;;;;;;;;;;19.16;55.19;100666.00;4992101;28;7016;-75
2022/08/21 00:47:15;;;;;;;;;;;;;;;19.12;55.13;100664.19;4955754;28;7004;-76
2022/08/21 00:49:41;;;;;;;;;;;;;;;19.10;54.97;100665.91;4962892;28;6884;-75
2022/08/21 00:52:19;;;;;;;;;;;;;;;19.07;55.10;100666.72;4972787;28;6840;-75
2022/08/21 00:54:46;;;;;;;;;;;;;;;19.04;55.52;100655.41;4987878;28;6823;-75
2022/08/21 00:57:29;;;;;;;;;;;;;;;19.01;55.28;100658.84;4960852;28;6796;-75
2022/08/21 01:00:00;;;;;;;;;;;;;;;18.97;55.57;100665.66;4959619;28;7177;-75
2022/08/21 01:02:27;;;;;;;;;;;;;;;18.95;55.50;100656.09;4991283;28;6836;-75
2022/08/21 01:04:52;;;;;;;;;;;;;;;18.89;55.22;100662.03;4964751;28;7336;-75
2022/08/21 01:07:19;;;;;;;;;;;;;;;18.87;54.81;100664.59;4962216;28;7085;-75
2022/08/21 01:09:47;;;;;;;;;;;;;;;18.83;55.11;100662.81;4977303;28;6991;-75
2022/08/21 01:12:14;;;;;;;;;;;;;;;18.79;55.27;100657.53;4987770;28;6800;-75
2022/08/21 01:14:42;;;;;;;;;;;;;;;18.74;55.33;100662.66;4957254;28;7276;-75
2022/08/21 01:17:13;;;;;;;;;;;;;;;18.71;55.54;100660.00;4958066;28;7300;-75
2022/08/21 01:19:39;;;;;;;;;;;;;;;18.66;55.18;100656.44;4957115;28;7198;-75
2022/08/21 01:22:05;;;;;;;;;;;;;;;18.63;55.77;100667.63;4959478;28;6815;-75
2022/08/21 01:24:32;;;;;;;;;;;;;;;18.59;55.98;100665.81;4994850;28;7116;-75
2022/08/21 01:27:00;;;;;;;;;;;;;;;18.57;55.48;100659.75;4962753;28;6977;-75
2022/08/21 01:29:49;;;;;;;;;;;;;;;18.54;56.02;100660.53;4961693;28;6796;-75
2022/08/21 01:32:18;;;;;;;;;;;;;;;18.51;56.33;100657.91;4991348;28;7018;-75
2022/08/21 01:34:47;;;;;;;;;;;;;;;18.50;56.56;100658.75;4989964;28;6808;-75
2022/08/21 01:37:14;;;;;;;;;;;;;;;18.52;56.18;100667.44;4957615;28;6931;-75
2022/08/21 01:39:41;;;;;;;;;;;;;;;18.53;56.18;100663.09;4958676;28;7169;-75
2022/08/21 01:42:08;;;;;;;;;;;;;;;18.55;56.43;100674.41;4957687;28;7289;-75
2022/08/21 01:44:35;;;;;;;;;;;;;;;18.53;56.53;100665.69;4952860;28;8111;-74
2022/08/21 01:47:05;;;;;;;;;;;;;;;18.51;55.66;100665.69;4960883;28;6867;-74
2022/08/21 01:49:30;;;;;;;;;;;;;;;18.49;56.27;100667.34;4977200;28;6993;-75
2022/08/21 01:51:56;;;;;;;;;;;;;;;18.49;56.05;100663.91;4977682;28;6807;-75
2022/08/21 01:54:22;;;;;;;;;;;;;;;18.46;56.29;100659.53;4956766;28;7888;-75
2022/08/21 01:56:52;;;;;;;;;;;;;;;18.44;55.66;100656.88;4964248;28;6796;-75
2022/08/21 01:59:20;;;;;;;;;;;;;;;18.42;56.08;100655.13;4962891;28;6826;-76
2022/08/21 02:01:46;;;;;;;;;;;;;;;18.39;56.06;100655.94;4961417;28;6804;-75
2022/08/21 02:04:11;;;;;;;;;;;;;;;18.38;55.84;100661.09;4988335;28;7282;-75
2022/08/21 02:06:38;;;;;;;;;;;;;;;18.36;56.03;100657.59;4957829;28;6852;-75
2022/08/21 02:09:07;;;;;;;;;;;;;;;18.33;56.51;100658.41;4946520;28;7388;-75
2022/08/21 02:11:34;;;;;;;;;;;;;;;18.32;56.24;100659.25;4947552;28;7633;-75
2022/08/21 02:14:00;;;;;;;;;;;;;;;18.30;56.33;100655.75;4936741;28;6985;-75
2022/08/21 02:16:26;;;;;;;;;;;;;;;18.31;56.29;100654.91;4958040;28;6792;-74
2022/08/21 02:18:52;;;;;;;;;;;;;;;18.34;56.96;100648.91;4957307;28;6808;-75
2022/08/21 02:21:18;;;;;;;;;;;;;;;18.38;56.83;100649.00;4975468;28;7197;-75
2022/08/21 02:23:44;;;;;;;;;;;;;;;18.41;56.37;100651.63;4994005;28;6787;-75
2022/08/21 02:26:11;;;;;;;;;;;;;;;18.45;56.16;100649.97;4985149;28;6979;-75
2022/08/21 02:28:38;;;;;;;;;;;;;;;18.48;56.61;100656.97;4955561;28;7093;-75
2022/08/21 02:31:05;;;;;;;;;;;;;;;18.50;56.18;100652.66;4960089;28;7188;-75
2022/08/21 02:33:31;;;;;;;;;;;;;;;18.50;55.96;100656.16;4953502;28;7030;-75
2022/08/21 02:35:57;;;;;;;;;;;;;;;18.51;55.90;100657.00;4952598;28;7183;-75
2022/08/21 02:38:30;;;;;;;;;;;;;;;18.51;56.40;100657.91;4955136;28;6812;-75
2022/08/21 02:40:57;;;;;;;;;;;;;;;18.51;55.87;100657.00;4984596;28;6792;-75
2022/08/21 02:43:26;;;;;;;;;;;;;;;18.51;55.88;100654.41;4971400;28;6784;-74
2022/08/21 02:45:55;;;;;;;;;;;;;;;18.52;55.80;100656.16;4973737;28;7065;-74
2022/08/21 02:48:27;;;;;;;;;;;;;;;18.52;56.34;100654.47;4962338;28;6812;-74
2022/08/21 02:51:07;;;;;;;;;;;;;;;18.53;56.23;100658.81;4974111;28;7021;-74
2022/08/21 02:53:33;;;;;;;;;;;;;;;18.55;55.83;100657.09;4957392;28;6891;-74
2022/08/21 02:56:05;;;;;;;;;;;;;;;18.58;56.25;100658.88;4992980;28;6982;-74
2022/08/21 02:58:38;;;;;;;;;;;;;;;18.57;56.12;100647.63;4958548;28;6998;-74
2022/08/21 03:01:09;;;;;;;;;;;;;;;18.59;56.24;100653.75;4971900;28;7063;-74
2022/08/21 03:03:37;;;;;;;;;;;;;;;18.62;55.55;100652.03;4961505;28;7208;-74
2022/08/21 03:06:05;;;;;;;;;;;;;;;18.63;56.07;100649.44;4986923;28;7493;-74
2022/08/21 03:08:31;;;;;;;;;;;;;;;18.64;55.53;100653.81;4955620;28;6960;-74
2022/08/21 03:10:59;;;;;;;;;;;;;;;18.63;55.77;100639.06;4947650;28;7351;-74
2022/08/21 03:13:25;;;;;;;;;;;;;;;18.64;55.34;100640.84;4986637;28;7584;-74
2022/08/21 03:15:51;;;;;;;;;;;;;;;18.65;55.36;100644.31;4951899;28;6943;-74
2022/08/21 03:18:17;;;;;;;;;;;;;;;18.64;55.55;100640.84;4955940;28;6860;-74
2022/08/21 03:20:45;;;;;;;;;;;;;;;18.65;55.15;100644.31;4960425;28;6994;-74
2022/08/21 03:23:11;;;;;;;;;;;;;;;18.65;55.39;100644.31;4957037;28;6986;-74
2022/08/21 03:25:37;;;;;;;;;;;;;;;18.64;55.24;100643.44;4938236;28;7314;-74
2022/08/21 03:28:08;;;;;;;;;;;;;;;18.62;55.11;100646.84;4958222;28;7224;-74
2022/08/21 03:30:33;;;;;;;;;;;;;;;18.59;54.93;100638.16;4951571;28;7196;-74
2022/08/21 03:33:00;;;;;;;;;;;;;;;18.57;55.19;100644.16;4970252;28;6937;-74
2022/08/21 03:35:27;;;;;;;;;;;;;;;18.52;54.81;100641.47;4950482;28;7221;-74
2022/08/21 03:37:54;;;;;;;;;;;;;;;18.46;55.00;100639.66;4954851;28;8189;-74
2022/08/21 03:40:21;;;;;;;;;;;;;;;18.44;54.96;100643.91;4948490;28;7208;-74
2022/08/21 03:42:47;;;;;;;;;;;;;;;18.42;55.47;100647.34;4972784;28;6804;-74
2022/08/21 03:45:16;;;;;;;;;;;;;;;18.40;55.50;100656.81;4987904;28;6965;-74
2022/08/21 03:48:01;;;;;;;;;;;;;;;18.38;55.12;100654.19;4978816;28;7246;-74
2022/08/21 03:50:31;;;;;;;;;;;;;;;18.35;54.97;100648.94;4987070;28;6799;-74
2022/08/21 03:52:57;;;;;;;;;;;;;;;18.33;55.54;100650.59;4936065;28;7303;-74
2022/08/21 03:55:24;;;;;;;;;;;;;;;18.31;55.36;100660.97;4957517;28;6950;-74
2022/08/21 03:57:50;;;;;;;;;;;;;;;18.28;55.21;100655.72;4960362;28;6976;-74
2022/08/21 04:00:18;;;;;;;;;;;;;;;18.28;55.09;100660.03;4963640;28;6783;-74
2022/08/21 04:02:45;;;;;;;;;;;;;;;18.27;55.28;100666.06;4988448;28;7318;-74
2022/08/21 04:05:13;;;;;;;;;;;;;;;18.26;55.55;100660.00;4963872;28;7029;-75
2022/08/21 04:07:39;;;;;;;;;;;;;;;18.26;55.36;100661.72;4962459;28;7052;-74
2022/08/21 04:10:07;;;;;;;;;;;;;;;18.26;55.30;100669.50;4977662;28;7264;-74
2022/08/21 04:12:33;;;;;;;;;;;;;;;18.25;54.93;100667.72;4961705;28;7245;-74
2022/08/21 04:14:59;;;;;;;;;;;;;;;18.24;55.33;100673.78;4964202;28;6967;-74
2022/08/21 04:17:24;;;;;;;;;;;;;;;18.21;55.42;100671.13;4960708;28;6900;-74
2022/08/21 04:19:50;;;;;;;;;;;;;;;18.20;55.57;100674.56;4957839;28;7276;-74
2022/08/21 04:22:17;;;;;;;;;;;;;;;18.18;55.22;100679.72;4955751;28;6936;-74
2022/08/21 04:24:42;;;;;;;;;;;;;;;18.16;55.55;100674.50;4960325;28;6795;-74
2022/08/21 04:27:08;;;;;;;;;;;;;;;18.12;55.65;100672.69;4969119;28;7275;-75
2022/08/21 04:29:33;;;;;;;;;;;;;;;18.12;55.29;100674.41;4962133;28;8185;-75
2022/08/21 04:31:59;;;;;;;;;;;;;;;18.10;55.73;100678.66;4990037;28;7086;-74
2022/08/21 04:34:25;;;;;;;;;;;;;;;18.09;55.22;100672.63;4963146;28;6942;-74
2022/08/21 04:36:51;;;;;;;;;;;;;;;18.11;55.83;100672.66;4963768;28;6851;-74
2022/08/21 04:39:16;;;;;;;;;;;;;;;18.10;55.73;100674.38;4971960;28;7029;-74
2022/08/21 04:41:42;;;;;;;;;;;;;;;18.12;55.40;100672.69;4973184;28;7543;-74
2022/08/21 04:44:08;;;;;;;;;;;;;;;18.12;55.86;100672.69;4960438;28;7287;-74
2022/08/21 04:46:34;;;;;;;;;;;;;;;18.13;55.82;100677.00;4973169;28;6987;-74
2022/08/21 04:49:00;;;;;;;;;;;;;;;18.14;55.40;100670.97;4975364;28;6991;-74
2022/08/21 04:51:32;;;;;;;;;;;;;;;18.15;55.80;100666.69;4975409;28;7317;-74
2022/08/21 04:54:12;;;;;;;;;;;;;;;18.16;55.61;100671.91;4959675;28;7074;-74
2022/08/21 04:57:10;;;;;;;;;;;;;;;18.18;55.46;100666.75;4962131;28;7230;-75
2022/08/21 04:59:42;;;;;;;;;;;;;;;18.20;55.61;100674.56;4959568;28;7220;-75
2022/08/21 05:02:09;;;;;;;;;;;;;;;18.18;55.82;100675.41;4960258;28;6974;-74
2022/08/21 05:04:52;;;;;;;;;;;;;;;18.20;55.77;100671.97;4975980;28;6792;-74
2022/08/21 05:07:27;;;;;;;;;;;;;;;18.21;55.83;100676.31;4961314;28;7232;-74
2022/08/21 05:09:54;;;;;;;;;;;;;;;18.22;55.79;100680.66;4965286;28;7141;-74
2022/08/21 05:12:21;;;;;;;;;;;;;;;18.23;56.05;100674.63;4972947;28;7401;-74
2022/08/21 05:14:47;;;;;;;;;;;;;;;18.26;55.80;100685.06;4973960;28;7064;-74
2022/08/21 05:17:13;;;;;;;;;;;;;;;18.29;56.21;100685.13;4991615;28;8843;-74
2022/08/21 05:19:39;;;;;;;;;;;;;;;18.31;55.97;100684.31;4953889;28;6788;-75
2022/08/21 05:22:09;;;;;;;;;;;;;;;18.36;55.98;100684.44;4960552;28;7011;-75
2022/08/21 05:24:34;;;;;;;;;;;;;;;18.40;56.55;100688.81;4988657;28;6784;-73
2022/08/21 05:27:00;;;;;;;;;;;;;;;18.48;56.15;100690.69;4963176;28;7176;-73
2022/08/21 05:29:26;;;;;;;;;;;;;;;18.55;56.33;100687.38;4977216;28;6789;-72
2022/08/21 05:31:52;;;;;;;;;;;;;;;18.63;56.41;100690.13;4959075;28;6776;-73
2022/08/21 05:34:22;;;;;;;;;;;;;;;18.70;56.07;100686.81;4993551;28;7316;-73
2022/08/21 05:36:47;;;;;;;;;;;;;;;18.78;56.24;100687.81;4966920;28;7219;-73
2022/08/21 05:39:14;;;;;;;;;;;;;;;18.86;56.12;100687.97;4964454;28;6788;-73
2022/08/21 05:41:40;;;;;;;;;;;;;;;18.93;56.08;100681.16;4962717;28;6812;-73
2022/08/21 05:44:05;;;;;;;;;;;;;;;19.03;55.74;100688.28;4972122;28;6809;-72
2022/08/21 05:46:31;;;;;;;;;;;;;;;19.12;55.69;100695.38;4961856;28;7113;-73
2022/08/21 05:48:56;;;;;;;;;;;;;;;19.20;55.21;100688.59;4958465;28;6864;-73
2022/08/21 05:51:22;;;;;;;;;;;;;;;19.30;54.95;100694.81;4962291;28;6784;-73
2022/08/21 05:53:48;;;;;;;;;;;;;;;19.38;55.28;100687.16;4965742;28;6784;-73
2022/08/21 05:56:14;;;;;;;;;;;;;;;19.44;55.08;100679.47;4978162;28;6957;-73
2022/08/21 05:58:40;;;;;;;;;;;;;;;19.51;54.40;100673.50;4973118;28;6844;-73
2022/08/21 06:01:07;;;;;;;;;;;;;;;19.59;54.50;100684.03;4960725;28;6988;-73
2022/08/21 06:03:36;;;;;;;;;;;;;;;19.65;54.20;100678.91;4965434;28;6833;-72
2022/08/21 06:06:03;;;;;;;;;;;;;;;19.74;54.13;100683.38;4957402;28;7133;-72
2022/08/21 06:08:29;;;;;;;;;;;;;;;19.79;53.94;100679.09;4971009;28;7008;-73
2022/08/21 06:10:57;;;;;;;;;;;;;;;19.88;53.65;100680.09;4968376;28;7215;-73
2022/08/21 06:13:24;;;;;;;;;;;;;;;19.92;53.50;100674.94;4957325;28;6884;-72
2022/08/21 06:16:12;;;;;;;;;;;;;;;20.00;53.33;100671.63;4975793;28;6800;-72
2022/08/21 06:18:39;;;;;;;;;;;;;;;20.04;53.52;100676.00;4972662;28;7002;-72
2022/08/21 06:21:06;;;;;;;;;;;;;;;20.11;53.85;100675.22;4975404;28;7047;-72
2022/08/21 06:23:32;;;;;;;;;;;;;;;20.20;53.53;100685.75;4965287;28;6804;-72
2022/08/21 06:25:58;;;;;;;;;;;;;;;20.28;53.21;100688.47;4991785;28;6969;-72
2022/08/21 06:28:24;;;;;;;;;;;;;;;20.34;52.96;100691.13;4961654;28;6772;-72
2022/08/21 06:30:50;;;;;;;;;;;;;;;20.42;53.10;100693.81;4968588;28;7963;-72
2022/08/21 06:33:15;;;;;;;;;;;;;;;20.49;53.08;100694.78;4954323;28;7782;-72
2022/08/21 06:35:41;;;;;;;;;;;;;;;20.56;52.91;100691.38;4965500;28;6792;-72
2022/08/21 06:38:06;;;;;;;;;;;;;;;20.66;52.77;100693.22;4984095;28;7115;-73
2022/08/21 06:40:32;;;;;;;;;;;;;;;20.75;52.97;100691.59;4958723;28;6971;-72
2022/08/21 06:43:04;;;;;;;;;;;;;;;20.82;52.62;100696.03;4956399;28;6944;-73
2022/08/21 06:45:30;;;;;;;;;;;;;;;20.90;52.33;100707.41;4949632;28;6947;-72
2022/08/21 06:47:55;;;;;;;;;;;;;;;20.99;52.52;100708.38;4974487;28;7252;-73
2022/08/21 06:50:21;;;;;;;;;;;;;;;21.06;52.39;100703.22;4951671;28;6772;-72
2022/08/21 06:52:47;;;;;;;;;;;;;;;21.16;52.19;100692.88;4970562;28;7293;-72
2022/08/21 06:55:13;;;;;;;;;;;;;;;21.23;52.26;100689.47;4961008;28;6775;-72
2022/08/21 06:57:39;;;;;;;;;;;;;;;21.33;52.14;100690.41;4953335;28;6811;-73
2022/08/21 07:00:08;;;;;;;;;;;;;;;21.41;51.93;100696.56;4957567;28;7862;-72
2022/08/21 07:02:34;;;;;;;;;;;;;;;21.50;51.86;100693.19;4959464;28;7252;-72
2022/08/21 07:05:00;;;;;;;;;;;;;;;21.59;51.52;100694.97;4990715;28;7044;-72
2022/08/21 07:07:26;;;;;;;;;;;;;;;21.69;51.66;100686.38;4957416;28;7171;-72
2022/08/21 07:09:51;;;;;;;;;;;;;;;21.76;51.48;100680.34;4958806;28;6915;-72
2022/08/21 07:12:17;;;;;;;;;;;;;;;21.88;51.16;100687.38;4955838;28;6884;-72
2022/08/21 07:14:42;;;;;;;;;;;;;;;21.95;50.69;100685.66;4957546;28;6833;-72
2022/08/21 07:17:08;;;;;;;;;;;;;;;22.02;50.69;100690.06;4964754;28;7130;-72
2022/08/21 07:19:33;;;;;;;;;;;;;;;22.12;50.48;100692.72;4956730;28;7172;-72
2022/08/21 07:22:01;;;;;;;;;;;;;;;22.22;50.50;100697.13;4986810;28;6894;-73
2022/08/21 07:24:29;;;;;;;;;;;;;;;22.31;50.20;100691.94;4975441;28;6872;-72
2022/08/21 07:26:55;;;;;;;;;;;;;;;22.39;50.27;100691.94;4958270;28;7046;-72
2022/08/21 07:29:21;;;;;;;;;;;;;;;22.46;49.70;100692.84;4992759;28;6792;-72
2022/08/21 07:31:47;;;;;;;;;;;;;;;22.52;49.40;100692.03;4942631;28;6965;-73
2022/08/21 07:34:13;;;;;;;;;;;;;;;22.58;48.86;100695.50;4959211;28;6768;-73
2022/08/21 07:36:39;;;;;;;;;;;;;;;22.65;48.63;100691.22;4976686;28;6982;-73
2022/08/21 07:39:04;;;;;;;;;;;;;;;22.71;48.93;100703.41;4962869;28;6939;-73
2022/08/21 07:41:31;;;;;;;;;;;;;;;22.76;48.57;100693.81;4977819;28;6803;-73
2022/08/21 07:43:59;;;;;;;;;;;;;;;22.82;48.78;100690.34;4950353;28;7037;-73
2022/08/21 07:46:26;;;;;;;;;;;;;;;22.90;48.11;100691.25;4963204;28;6820;-73
2022/08/21 07:48:52;;;;;;;;;;;;;;;23.00;48.05;100685.16;4987335;28;7156;-72
2022/08/21 07:51:25;;;;;;;;;;;;;;;23.10;47.81;100675.59;4989791;28;7034;-72
2022/08/21 07:53:53;;;;;;;;;;;;;;;23.25;48.17;100676.44;4978538;28;7457;-73
2022/08/21 07:56:21;;;;;;;;;;;;;;;23.35;47.74;100675.59;4959212;28;7239;-73
2022/08/21 07:58:47;;;;;;;;;;;;;;;23.44;47.17;100667.75;4991113;28;6792;-72
2022/08/21 08:01:13;;;;;;;;;;;;;;;23.54;46.82;100665.13;4977348;28;7041;-73
2022/08/21 08:03:40;;;;;;;;;;;;;;;23.60;47.05;100667.75;4963664;28;6780;-72
2022/08/21 08:06:11;;;;;;;;;;;;;;;23.68;46.81;100670.31;4962557;28;6784;-72
2022/08/21 08:08:39;;;;;;;;;;;;;;;23.77;46.34;100664.22;4961656;28;6808;-72
2022/08/21 08:11:05;;;;;;;;;;;;;;;23.86;46.16;100659.81;4993689;28;6800;-72
2022/08/21 08:13:30;;;;;;;;;;;;;;;24.00;45.96;100658.91;4994237;28;7282;-72
2022/08/21 08:15:56;;;;;;;;;;;;;;;24.15;46.16;100658.03;4963648;28;6784;-73
2022/08/21 08:18:22;;;;;;;;;;;;;;;24.28;45.80;100661.44;4969995;28;7107;-73
2022/08/21 08:20:48;;;;;;;;;;;;;;;24.39;45.66;100666.63;4957990;28;6851;-72
2022/08/21 08:23:14;;;;;;;;;;;;;;;24.47;45.44;100656.97;4984772;28;7221;-73
2022/08/21 08:25:40;;;;;;;;;;;;;;;24.58;44.81;100664.78;4953545;28;10267;-73
2022/08/21 08:28:07;;;;;;;;;;;;;;;24.69;44.59;100673.44;4989910;28;6844;-73
2022/08/21 08:30:32;;;;;;;;;;;;;;;24.81;44.75;100664.63;4954360;28;6868;-73
2022/08/21 08:32:59;;;;;;;;;;;;;;;24.92;44.47;100663.72;4959218;28;7093;-73
2022/08/21 08:35:26;;;;;;;;;;;;;;;25.03;44.37;100653.13;4970057;28;7227;-73
2022/08/21 08:37:52;;;;;;;;;;;;;;;25.14;43.96;100646.03;4954694;28;9143;-73
2022/08/21 08:40:29;;;;;;;;;;;;;;;25.22;43.39;100638.97;4992408;28;7208;-73
2022/08/21 08:42:55;;;;;;;;;;;;;;;25.27;43.26;100649.44;4963255;28;6824;-73
2022/08/21 08:45:25;;;;;;;;;;;;;;;25.28;43.21;100645.91;4975783;28;6976;-74
2022/08/21 08:48:03;;;;;;;;;;;;;;;25.27;43.24;100638.09;4961944;28;7295;-73
2022/08/21 08:50:55;;;;;;;;;;;;;;;25.31;43.12;100643.28;4969125;28;7246;-74
2022/08/21 08:53:30;;;;;;;;;;;;;;;25.38;43.19;100630.97;4953690;28;6816;-73
2022/08/21 08:55:57;;;;;;;;;;;;;;;25.51;43.03;100642.25;4939648;28;6877;-74
2022/08/21 08:58:36;;;;;;;;;;;;;;;25.65;42.62;100635.09;4985279;28;6867;-74
2022/08/21 09:01:12;;;;;;;;;;;;;;;25.83;42.35;100633.13;4978164;28;6815;-74
2022/08/21 09:03:40;;;;;;;;;;;;;;;26.04;42.22;100636.38;4978983;28;7207;-73
2022/08/21 09:06:35;;;;;;;;;;;;;;;26.25;41.80;100629.13;4990518;28;6792;-74
2022/08/21 09:09:13;;;;;;;;;;;;;;;26.45;41.01;100626.25;4991131;28;7261;-73
2022/08/21 09:11:52;;;;;;;;;;;;;;;26.64;40.92;100628.59;4960867;28;7280;-73
2022/08/21 09:14:46;;;;;;;;;;;;;;;26.76;40.75;100639.81;4986651;28;7094;-74
2022/08/21 09:18:03;;;;;;;;;;;;;;;27.01;40.65;100633.31;4959672;28;8147;-73
2022/08/21 09:20:40;;;;;;;;;;;;;;;27.33;40.68;100633.59;4981914;28;7223;-73
2022/08/21 09:23:38;;;;;;;;;;;;;;;27.75;40.16;100620.56;4960038;28;7222;-73
2022/08/21 09:26:14;;;;;;;;;;;;;;;28.13;39.28;100623.28;4963070;28;6819;-73
2022/08/21 09:28:43;;;;;;;;;;;;;;;28.60;38.65;100625.78;4960917;28;7210;-73
2022/08/21 09:31:36;;;;;;;;;;;;;;;29.29;38.12;100610.91;4976048;28;7221;-73
2022/08/21 09:34:09;;;;;;;;;;;;;;;30.20;37.05;100615.41;4973806;28;7118;-74
2022/08/21 09:36:44;;;;;;;;;;;;;;;30.99;35.36;100619.97;4959847;28;6820;-74
2022/08/21 09:39:21;;;;;;;;;;;;;;;31.75;35.07;100614.66;4960767;28;6800;-74
2022/08/21 09:41:57;;;;;;;;;;;;;;;32.54;34.26;100618.75;4986419;28;6970;-73
2022/08/21 09:44:31;;;;;;;;;;;;;;;33.14;33.27;100606.56;4951972;28;8394;-73
2022/08/21 09:46:56;;;;;;;;;;;;;;;33.70;32.27;100604.09;4962974;28;7007;-73
2022/08/21 09:49:33;;;;;;;;;;;;;;;34.18;31.78;100605.41;4962679;28;6913;-74
2022/08/21 09:52:00;;;;;;;;;;;;;;;34.55;31.53;100596.59;4955539;28;7180;-73
2022/08/21 09:54:38;;;;;;;;;;;;;;;34.66;30.83;100599.56;4939680;28;7126;-73
2022/08/21 09:59:55;;;;;;;;;;;;;;;34.97;30.03;100595.38;4961836;28;7580;-73
2022/08/21 10:02:35;;;;;;;;;;;;;;;35.07;29.52;100594.91;4989889;28;8327;-73
2022/08/21 10:05:19;;;;;;;;;;;;;;;35.20;29.93;100592.44;4956648;28;7258;-73
2022/08/21 10:07:44;;;;;;;;;;;;;;;35.36;29.14;100588.03;4958028;28;8324;-73
2022/08/21 10:10:19;;;;;;;;;;;;;;;35.47;29.29;100587.47;4954378;28;6846;-74
2022/08/21 10:13:03;;;;;;;;;;;;;;;35.55;28.40;100592.38;4956517;28;7342;-73
2022/08/21 10:15:55;;;;;;;;;;;;;;;35.63;28.06;100589.28;4988603;28;7157;-73
2022/08/21 10:18:42;;;;;;;;;;;;;;;35.75;28.64;100599.31;4960983;28;6950;-73
2022/08/21 10:21:17;;;;;;;;;;;;;;;35.99;28.13;100591.75;4959563;28;7237;-73
2022/08/21 10:24:23;;;;;;;;;;;;;;;36.27;27.20;100584.00;4962393;28;7352;-73
2022/08/21 10:27:15;;;;;;;;;;;;;;;36.53;27.27;100590.47;4969964;28;6816;-74
2022/08/21 10:30:28;;;;;;;;;;;;;;;36.82;26.71;100584.41;4960678;28;6815;-73
2022/08/21 10:33:14;;;;;;;;;;;;;;;37.05;26.45;100595.50;4958462;28;11305;-74
2022/08/21 10:35:55;;;;;;;;;;;;;;;37.26;26.04;100577.31;4957865;28;6852;-74
2022/08/21 10:39:05;;;;;;;;;;;;;;;37.50;25.25;100580.25;4980080;28;7020;-74
2022/08/21 10:41:47;;;;;;;;;;;;;;;37.85;24.78;100580.78;4962152;28;6815;-74
2022/08/21 10:44:33;;;;;;;;;;;;;;;38.27;24.12;100562.91;4962152;28;7257;-73
2022/08/21 10:47:36;;;;;;;;;;;;;;;38.56;24.03;100568.16;4957980;28;7376;-73
2022/08/21 10:50:48;;;;;;;;;;;;;;;38.69;23.02;100573.53;4973127;28;6879;-74
2022/08/21 10:53:21;;;;;;;;;;;;;;;38.59;22.61;100573.28;4961156;28;7003;-74
2022/08/21 10:56:21;;;;;;;;;;;;;;;38.46;22.52;100575.06;4952910;28;12179;-74
2022/08/21 10:59:19;;;;;;;;;;;;;;;38.43;22.54;100577.94;4959033;28;7198;-74
2022/08/21 11:02:25;;;;;;;;;;;;;;;38.84;22.32;100574.28;4970904;28;7014;-75
2022/08/21 11:05:12;;;;;;;;;;;;;;;39.23;21.94;100571.63;4971614;28;7058;-74
2022/08/21 11:07:57;;;;;;;;;;;;;;;39.47;21.44;100559.28;4955038;28;8075;-75
2022/08/21 11:10:55;;;;;;;;;;;;;;;39.59;21.51;100569.09;4953600;28;6947;-75
2022/08/21 11:13:47;;;;;;;;;;;;;;;39.72;21.34;100575.31;4956260;28;7275;-75
2022/08/21 11:16:36;;;;;;;;;;;;;;;39.80;21.07;100581.94;4989407;28;6947;-75
2022/08/21 11:19:19;;;;;;;;;;;;;;;39.90;20.77;100566.91;4979085;28;7826;-74
2022/08/21 11:22:21;;;;;;;;;;;;;;;39.89;20.46;100577.75;4963386;28;7244;-74
2022/08/21 11:25:20;;;;;;;;;;;;;;;39.95;20.95;100570.09;4984860;28;6832;-75
2022/08/21 11:28:05;;;;;;;;;;;;;;;40.09;20.60;100569.06;4976774;28;6823;-75
2022/08/21 11:31:15;;;;;;;;;;;;;;;40.15;20.39;100562.38;4994528;28;6977;-74
2022/08/21 11:34:19;;;;;;;;;;;;;;;40.08;20.44;100567.34;4966676;28;7245;-74
2022/08/21 11:37:11;;;;;;;;;;;;;;;39.97;20.21;100568.16;4992551;28;6824;-75
2022/08/21 11:39:58;;;;;;;;;;;;;;;40.03;20.40;100568.69;4963125;28;6863;-75
2022/08/21 11:42:54;;;;;;;;;;;;;;;40.26;20.10;100562.41;4974890;28;7093;-75
2022/08/21 11:45:44;;;;;;;;;;;;;;;40.30;19.80;100564.88;4962630;28;7009;-75
2022/08/21 11:48:36;;;;;;;;;;;;;;;39.97;19.71;100559.25;4961451;28;6824;-75
2022/08/21 11:51:12;;;;;;;;;;;;;;;39.67;19.93;100558.69;4961018;28;6828;-74
2022/08/21 11:53:52;;;;;;;;;;;;;;;39.54;20.33;100557.88;4960039;28;6986;-75
2022/08/21 11:56:26;;;;;;;;;;;;;;;39.50;20.14;100557.25;4974638;28;6994;-74
2022/08/21 11:59:11;;;;;;;;;;;;;;;39.41;20.48;100553.41;4962273;28;7318;-75
2022/08/21 12:01:44;;;;;;;;;;;;;;;39.30;20.81;100542.56;4953777;28;7027;-74
2022/08/21 12:04:22;;;;;;;;;;;;;;;39.07;21.06;100547.75;4974870;28;6841;-74
2022/08/21 12:06:49;;;;;;;;;;;;;;;39.14;21.33;100554.38;4955737;28;6860;-75
2022/08/21 12:09:23;;;;;;;;;;;;;;;39.27;21.14;100546.34;4961970;28;6784;-75
2022/08/21 12:12:02;;;;;;;;;;;;;;;39.48;21.03;100547.59;4965720;28;7321;-74
2022/08/21 12:14:44;;;;;;;;;;;;;;;39.81;20.72;100552.31;4961552;28;7663;-75
2022/08/21 12:17:22;;;;;;;;;;;;;;;40.09;20.16;100558.34;4961955;28;7396;-74
2022/08/21 12:20:34;;;;;;;;;;;;;;;40.34;19.57;100552.97;4957706;28;7036;-74
2022/08/21 12:23:09;;;;;;;;;;;;;;;40.48;19.31;100555.47;4990202;28;7056;-74
2022/08/21 12:26:03;;;;;;;;;;;;;;;40.49;19.46;100559.84;4950228;28;6772;-75
2022/08/21 12:28:31;;;;;;;;;;;;;;;40.61;19.45;100546.47;4973560;28;7245;-75
2022/08/21 12:30:57;;;;;;;;;;;;;;;40.85;19.58;100540.16;4960126;28;7438;-75
2022/08/21 12:33:37;;;;;;;;;;;;;;;41.01;18.97;100537.97;4958499;28;6931;-74
2022/08/21 12:36:11;;;;;;;;;;;;;;;40.89;18.65;100541.66;4964402;28;6815;-76
2022/08/21 12:38:53;;;;;;;;;;;;;;;40.59;19.14;100545.72;4988672;28;7245;-75
2022/08/21 12:41:34;;;;;;;;;;;;;;;40.56;19.18;100538.75;4954858;28;7027;-74
2022/08/21 12:44:15;;;;;;;;;;;;;;;40.58;19.17;100544.84;4978488;28;7155;-74
2022/08/21 12:47:01;;;;;;;;;;;;;;;40.59;18.96;100548.41;4961135;28;6836;-74
2022/08/21 12:49:37;;;;;;;;;;;;;;;40.54;18.92;100549.59;4953676;28;6815;-74
2022/08/21 12:52:29;;;;;;;;;;;;;;;40.53;18.94;100534.47;4962306;28;6995;-75
2022/08/21 12:54:55;;;;;;;;;;;;;;;40.58;18.80;100547.53;4974042;28;6831;-75
2022/08/21 12:57:25;;;;;;;;;;;;;;;40.62;19.00;100543.66;4956410;28;6796;-75
2022/08/21 12:59:59;;;;;;;;;;;;;;;40.59;18.90;100543.03;4966988;28;7106;-74
2022/08/21 13:02:36;;;;;;;;;;;;;;;40.57;18.88;100542.31;4987959;28;6856;-74
2022/08/21 13:05:11;;;;;;;;;;;;;;;40.53;18.97;100539.84;4959077;28;6792;-74
2022/08/21 13:07:38;;;;;;;;;;;;;;;40.54;19.02;100546.91;4972551;28;6979;-74
2022/08/21 13:10:24;;;;;;;;;;;;;;;40.49;18.87;100540.19;4976433;28;6788;-75
2022/08/21 13:12:55;;;;;;;;;;;;;;;40.27;18.82;100542.69;4975376;28;7317;-73
2022/08/21 13:15:32;;;;;;;;;;;;;;;39.85;18.24;100547.56;4955797;28;7179;-74